Station: Bradshaw-Angallari Valley (Defence)

  Atmospheric Gas Attenuation - ITU Rec 676-11   --------------- db/100km ---------------
Date Time Temp RH % AH g/m3 Dew Point Wind Direction Speed kph Gust kph Barometer mB Rainfall Since 9am 24GHz 47GHz 76GHz 122GHz 134GHz 241GHz
07 06:30 16.5 38 5.34 2.2 2 4 1013.5 0 12.6 20.3 26.6 69.3 56.0 190.2
07 06:20 16.9 37 5.32 2.1 2 4 1013.1 0 12.5 20.2 26.4 68.8 55.5 188.4
07 06:10 16.9 39 5.61 2.8 4 6 1013.1 0 13.1 20.6 27.4 71.4 58.8 199.8
07 06:00 16.7 42 5.97 3.7 4 9 1013 0 13.9 21.2 28.7 74.9 63.0 214.7
07 05:50 16.5 44 6.18 4.2 4 4 1013.1 0 14.3 21.5 29.5 77.1 65.6 223.8
07 05:40 16.9 45 6.47 4.9 6 6 1013.1 0 14.9 21.8 30.4 79.4 68.6 234.5
07 05:30 16.7 45 6.39 4.7 4 6 1012.6 0 14.8 21.7 30.2 78.8 67.8 231.7
07 05:20 16.8 46 6.58 5.1 4 4 1013.1 0 15.2 22.0 30.8 80.6 70.0 239.4
07 05:10 17 47 6.8 5.6 4 4 1013.1 0 15.6 22.3 31.5 82.5 72.4 247.9
07 04:50 17.6 45 6.75 5.5 2 4 1013.1 0 15.5 22.1 31.1 81.4 71.3 244.0
07 04:40 18.2 42 6.53 5.1 4 4 1013.1 0 15.0 21.6 30.1 78.7 68.2 233.3
07 04:30 17.9 46 7.02 6.1 4 6 1012.1 0 16.1 22.3 31.9 83.5 74.1 254.0
07 04:20 17.3 47 6.92 5.9 2 4 1013.1 0 15.9 22.4 31.9 83.3 73.6 251.9
07 04:10 17.5 46 6.86 5.7 0 0 1013.1 0 15.7 22.2 31.6 82.5 72.7 248.8
07 04:00 17.8 46 6.98 6 0 0 1011.8 0 16.0 22.3 31.8 83.2 73.7 252.6
07 03:50 18.3 44 6.88 6.1 0 0 1013.1 0 15.7 22.1 31.3 81.9 72.2 247.2
07 03:40 18.8 44 7.09 6.3 0 0 1013.1 0 16.2 22.3 31.9 83.4 74.2 254.2
07 03:30 19 44 7.17 6.5 4 7 1011.5 0 16.3 22.3 32.0 83.8 74.8 256.5
07 03:20 19.2 44 7.25 6.6 6 6 1013.1 0 16.5 22.4 32.3 84.5 75.7 259.5
07 03:10 19.2 45 7.42 7 4 6 1013.1 0 16.8 22.6 32.9 86.1 77.7 266.5
07 03:00 18.8 46 7.41 6.9 4 7 1011.3 0 16.8 22.7 33.0 86.3 77.8 267.0
07 02:50 19.1 46 7.54 7.2 6 7 1013.1 0 17.1 22.8 33.4 87.3 79.2 271.8
07 02:40 19.3 46 7.63 7.4 0 0 1013.1 0 17.3 22.9 33.6 88.0 80.0 274.9
07 02:30 19.7 47 7.98 8.1 7 9 1011.2 0 18.0 23.3 34.6 90.7 83.6 287.6
07 02:20 18.7 48 7.68 7.7 7 7 1013.1 0 17.4 23.1 34.0 89.1 81.2 279.0
07 02:10 18.2 49 7.62 7.3 7 7 1013.1 0 17.3 23.2 34.0 89.1 81.0 278.2
07 02:00 18.2 49 7.62 7.3 6 6 1011.3 0 17.3 23.1 34.0 88.9 80.9 277.8
07 01:50 18.2 49 7.62 7.3 4 4 1013.1 0 17.3 23.2 34.0 89.1 81.0 278.2
07 01:40 18.6 47 7.48 7.3 0 0 1013.1 0 17.0 22.9 33.4 87.3 79.0 271.0
07 01:30 18.9 46 7.45 7 4 6 1011.5 0 16.9 22.7 33.1 86.5 78.2 268.4
07 01:20 19.1 46 7.54 7.2 6 6 1013.1 0 17.1 22.8 33.4 87.3 79.2 271.8
07 01:10 19.4 44 7.34 7.1 0 0 1013.1 0 16.7 22.5 32.5 85.1 76.5 262.6
07 01:00 19.6 44 7.43 7 0 0 1011.4 0 16.9 22.5 32.7 85.6 77.3 265.2
07 00:50 19.9 43 7.39 6.9 0 0 1013.1 0 16.8 22.4 32.5 85.1 76.6 263.0
07 00:40 20.3 43 7.56 7.3 0 0 1013.1 0 17.1 22.6 32.9 86.2 78.2 268.6
07 00:30 20.4 41 7.25 6.7 0 4 1011.6 0 16.4 22.1 31.8 83.1 74.5 255.4
07 00:20 20.8 42 7.6 7.4 4 4 1013.1 0 17.2 22.5 32.9 86.1 78.2 268.6
07 00:10 21.1 41 7.55 7.3 4 4 1013.1 0 17.0 22.4 32.6 85.3 77.3 265.6
07 00:00 21.6 41 7.78 7.8 4 6 1011.7 0 17.5 22.5 33.1 86.8 79.4 272.9
06 23:50 21.4 41 7.69 7.6 2 2 1013.1 0 17.3 22.5 33.0 86.3 78.7 270.3
06 23:40 21 41 7.51 7.2 0 0 1013.1 0 17.0 22.3 32.5 85.0 77.0 264.3
06 23:30 21.3 39 7.27 6.8 0 0 1011.9 0 16.4 21.9 31.5 82.4 73.9 253.5
06 23:20 21.9 37 7.14 6.5 0 0 1013.1 0 16.1 21.6 30.9 80.7 71.9 246.7
06 23:10 22.7 36 7.27 7.2 0 0 1013.1 0 16.4 21.6 31.0 81.1 72.7 249.4
06 23:00 23.2 36 7.48 7.3 4 6 1011.9 0 16.8 21.7 31.5 82.4 74.5 255.9
06 22:50 23.7 35 7.49 7.3 6 6 1013.1 0 16.8 21.7 31.4 82.1 74.2 254.9
06 22:40 23.5 35 7.4 7.5 6 6 1013.1 0 16.6 21.6 31.2 81.5 73.4 252.1
06 22:30 23.3 35 7.32 7 4 6 1011.5 0 16.5 21.5 30.9 80.8 72.6 249.2
06 22:20 23.6 35 7.44 7.2 6 6 1013.1 0 16.7 21.6 31.3 81.8 73.8 253.3
06 22:10 23.9 34 7.36 7.1 6 6 1013.1 0 16.5 21.4 30.9 80.7 72.6 249.3
06 22:00 24.3 33 7.3 7 4 6 1011.3 0 16.4 21.2 30.5 79.7 71.5 245.4
06 21:50 24.8 32 7.28 7 6 6 1013.1 0 16.3 21.1 30.3 79.2 70.9 243.5
06 21:40 25.6 31 7.38 7.2 6 6 1013.1 0 16.5 21.1 30.3 79.3 71.3 245.0
06 21:30 26.1 30 7.34 7.2 6 7 1011.2 0 16.4 20.9 29.9 78.3 70.3 241.6
06 21:20 26.5 29 7.26 7 4 6 1013.1 0 16.2 20.7 29.6 77.4 69.3 237.8
06 21:10 26.4 30 7.47 7.4 6 11 1013.1 0 16.7 21.0 30.3 79.3 71.6 246.0
06 21:00 26.2 30 7.39 7.3 4 7 1010.8 0 16.5 20.9 30.0 78.6 70.8 243.1
06 20:50 26.1 31 7.59 7.6 4 4 1013.1 0 16.9 21.2 30.8 80.6 73.1 251.4
06 20:40 26.4 31 7.72 7.9 2 2 1013.1 0 17.2 21.3 31.1 81.5 74.3 255.4
06 20:30 26.6 31 7.8 8.1 4 6 1010.5 0 17.3 21.3 31.2 81.8 74.8 257.3
06 20:20 26.6 30 7.55 7.6 4 4 1013.1 0 16.8 21.1 30.5 79.8 72.3 248.4
06 20:10 27.1 29 7.51 7.5 4 6 1013.1 0 16.7 20.9 30.2 79.0 71.4 245.4
06 20:00 27.6 29 7.72 8 4 7 1010.1 0 17.1 21.0 30.6 80.1 73.0 251.1
06 19:50 28 28 7.62 7.8 6 7 1013.1 0 16.9 20.9 30.2 79.1 71.8 246.9
06 19:40 28.3 28 7.74 8 7 9 1013.1 0 17.1 20.9 30.5 79.8 72.8 250.4
06 19:30 28.6 28 7.87 8.3 7 11 1009.7 0 17.4 20.9 30.7 80.3 73.7 253.6
06 19:20 28.9 27 7.71 8 7 11 1013.1 0 17.1 20.8 30.2 79.0 71.9 247.5
06 19:10 29.1 27 7.8 8.2 6 6 1013.1 0 17.2 20.8 30.4 79.6 72.7 250.2
06 19:00 29.4 27 7.93 8.5 7 13 1009.5 0 17.5 20.8 30.6 80.1 73.6 253.3
06 18:50 29.6 27 8.01 8.6 7 7 1013.1 0 17.6 21.0 30.9 80.9 74.5 256.4
06 18:40 29.9 26 7.84 8.8 7 9 1013.1 0 17.3 20.7 30.2 79.1 72.4 249.3
06 18:30 30.3 27 8.32 9.2 11 17 1009.1 0 18.3 21.1 31.5 82.5 76.8 264.7
06 18:20 30.6 26 8.15 9.4 11 13 1013.1 0 17.9 21.0 31.0 81.1 75.0 258.5
06 18:10 30.8 27 8.55 9.6 13 17 1013.1 0 18.7 21.4 32.1 84.3 79.0 272.5
06 18:00 31.1 27 8.69 9.9 13 19 1008.8 0 19.0 21.4 32.3 84.8 79.9 275.7
06 17:50 31.1 27 8.69 9.9 13 17 1013.1 0 19.0 21.6 32.5 85.2 80.2 276.7
06 17:40 31.3 26 8.46 10 15 19 1013.1 0 18.5 21.2 31.7 83.0 77.6 267.6
06 17:30 31.5 27 8.88 10.2 11 17 1008.5 0 19.4 21.6 32.8 86.0 81.5 281.3
06 17:20 31.4 26 8.5 10.1 13 20 1013.1 0 18.6 21.2 31.8 83.2 77.9 268.7
06 17:10 32 28 9.46 11.2 11 15 1013.1 0 20.5 22.4 34.6 90.8 87.4 302.1
06 17:00 32.3 27 9.26 10.9 9 19 1008.3 0 20.1 21.9 33.6 88.4 84.6 292.5
06 16:50 31.9 26 8.73 10.5 9 13 1013.1 0 19.0 21.4 32.3 84.7 79.8 275.5
06 16:40 33.3 26 9.41 11.7 9 11 1013.1 0 20.4 22.0 33.9 89.0 85.5 295.6
06 16:30 33.4 26 9.46 11.3 13 22 1008 0 20.5 21.9 33.8 88.9 85.6 295.8
06 16:20 33.4 28 10.18 12.4 11 17 1013.1 0 21.9 23.0 36.3 95.5 93.6 323.8
06 16:10 32.5 28 9.71 11.6 11 17 1013.1 0 21.0 22.6 35.2 92.4 89.5 309.6
06 16:00 33.3 26 9.41 11.2 15 24 1007.8 0 20.4 21.8 33.7 88.5 85.1 294.3
06 15:50 33.2 25 9 10.5 15 22 1013.1 0 19.5 21.5 32.6 85.6 81.4 281.0
06 15:40 34.2 22 8.35 9.4 17 26 1013.1 0 18.1 20.4 30.3 79.3 73.8 254.6
06 15:30 33.6 21 7.72 8.3 15 30 1008 0 16.9 19.6 28.4 74.4 67.8 233.4
06 15:20 33.6 23 8.45 9.6 11 15 1013.1 0 18.4 20.7 30.8 80.7 75.4 260.0
06 15:10 33.3 22 7.96 8.7 24 28 1013.1 0 17.4 20.1 29.4 77.0 70.7 243.6
06 15:00 33.3 26 9.41 11.2 13 26 1008.2 0 20.4 21.8 33.7 88.6 85.2 294.4
06 14:50 33.8 27 10.03 12.7 13 17 1013.1 0 21.6 22.7 35.7 93.8 91.5 316.7
06 14:40 33.2 26 9.36 11.6 7 13 1013.1 0 20.3 21.9 33.8 88.7 85.1 294.1
06 14:30 32.9 28 9.92 12 15 28 1008.6 0 21.4 22.6 35.5 93.4 91.0 314.8
06 14:20 32.9 27 9.56 11.9 19 22 1013.1 0 20.7 22.3 34.5 90.7 87.5 302.6
06 14:10 32.8 29 10.22 12.4 13 19 1013.1 0 22.0 23.2 36.7 96.6 94.7 327.7
06 14:00 32 30 10.13 12.3 13 22 1009 0 21.9 23.1 36.6 96.3 94.3 326.4
06 13:50 32.3 30 10.29 12.5 6 9 1013.1 0 22.2 23.4 37.2 97.8 96.0 332.3

Last Refresh: 07-Aug-2020 06:43:17

Most of the information presented on this site is sourced from the Bureau of Meteorology.  Copyright in all material sourced from the Bureau of Meteorology resides with the Commonwealth of Australia.